Skip to main content

NOAA/GLERL Met Station at Chicago, IL

Previous 3 Hours (2 minute increments)
See also Previous 5 Days (top of hour)
Jump down to Data
Switch to [English][Metric]
Zoom: Click and drag, Pan: shift-click and drag, Unzoom: double-click, Unzoom All




See also 1-day windrose plot


NOAA/GLERL Met Station at Chicago, IL

Previous 3 Hours (2 minute increments)
See also Previous 5 Days (top of hour only)
Jump up to Graphs
Switch to [English][Metric]
                  Wind  Wind  Wind   Air   Dew   Rel
                   Spd   Gst   Dir  Temp    Pt   Hum
YYYY-MM-DD   CDT   m/s   m/s   deg     C     C     %
2018-08-19 06:50   3.2   3.7    45  23.7  20.2  80.4
2018-08-19 06:48   3.3   3.7    47  23.7  20.3  81.1
2018-08-19 06:46   2.8   3.6    45  23.7  20.5  81.9
2018-08-19 06:44   2.9   3.3    42  23.7  20.6  82.4
2018-08-19 06:42   2.9   3.3    46  23.7  20.4  81.4
2018-08-19 06:40   2.8   3.5    53  23.7  20.3  81.1
2018-08-19 06:38   3.1   3.4    58  23.6  20.2  80.8
2018-08-19 06:36   3.2   3.6    63  23.7  20.5  81.8
2018-08-19 06:34   2.6   3.0    51  23.6  20.5  82.5
2018-08-19 06:32   2.6   3.0    48  23.6  20.5  82.5
2018-08-19 06:30   2.3   2.5    51  23.6  20.5  82.3
2018-08-19 06:28   2.5   2.8    49  23.6  20.4  81.9
2018-08-19 06:26   2.4   2.8    46  23.6  20.4  81.7
2018-08-19 06:24   2.7   3.1    37  23.6  20.4  82.2
2018-08-19 06:22   2.8   3.4    30  23.6  20.6  82.9
2018-08-19 06:20   2.6   3.1    29  23.6  20.5  82.4
2018-08-19 06:18   2.6   3.1    21  23.6  20.6  82.9
2018-08-19 06:16   2.1   2.4    25  23.6  20.6  82.8
2018-08-19 06:14   2.4   2.9    27  23.6  20.5  82.6
2018-08-19 06:12   2.8   3.3    22  23.6  20.6  82.9
2018-08-19 06:10   2.4   2.6    17  23.6  20.5  82.4
2018-08-19 06:08   2.6   3.0    17  23.6  20.4  82.2
2018-08-19 06:06   2.4   2.9    20  23.6  20.5  82.7
2018-08-19 06:04   2.3   2.6    21  23.6  20.6  82.9
2018-08-19 06:02   2.5   2.9    24  23.6  20.7  83.3
2018-08-19 06:00   2.6   2.9    19  23.6  20.5  82.5
2018-08-19 05:58   2.3   2.5    24  23.6  20.5  82.7
2018-08-19 05:56   2.5   2.9    29  23.6  20.5  82.5
2018-08-19 05:54   2.7   3.0    27  23.6  20.6  83.0
2018-08-19 05:52   2.9   3.4    25  23.6  20.5  82.3
2018-08-19 05:50   2.9   3.3    23  23.6  20.5  82.3
2018-08-19 05:48   2.6   3.2    36  23.6  20.4  82.0
2018-08-19 05:46   2.0   2.3    37  23.6  20.4  82.2
2018-08-19 05:44   2.0   2.3    33  23.6  20.5  82.4
2018-08-19 05:42   2.4   2.9    42  23.6  20.5  82.3
2018-08-19 05:40   2.3   2.7    34  23.6  20.4  82.2
2018-08-19 05:38   2.6   3.0    30  23.6  20.5  82.7
2018-08-19 05:36   2.2   2.5    29  23.6  20.4  82.2
2018-08-19 05:34   2.4   2.7    42  23.6  20.4  81.8
2018-08-19 05:32   2.5   2.8    35  23.6  20.4  81.7
2018-08-19 05:30   2.5   3.1    30  23.6  20.4  82.1
2018-08-19 05:28   2.5   2.8    19  23.6  20.4  81.8
2018-08-19 05:26   2.2   2.5    28  23.6  20.3  81.5
2018-08-19 05:24   2.3   2.8    29  23.6  20.4  81.9
2018-08-19 05:22   2.5   3.0    30  23.6  20.5  82.4
2018-08-19 05:20   2.4   2.7    28  23.5  20.3  81.8
2018-08-19 05:18   2.9   3.1    31  23.6  20.4  82.0
2018-08-19 05:16   2.6   3.0    44  23.6  20.4  81.7
2018-08-19 05:14   2.9   3.2    46  23.6  20.4  81.7
2018-08-19 05:12   2.3   2.6    43  23.5  20.2  81.4
2018-08-19 05:10   2.6   2.9    43  23.6  20.4  82.0
2018-08-19 05:08   2.7   3.0    41  23.6  20.5  82.6
2018-08-19 05:06   2.2   2.6    39  23.5  20.3  81.7
2018-08-19 05:04   2.7   2.9    38  23.6  20.5  82.3
2018-08-19 05:02   2.4   2.6    35  23.6  20.6  82.8
2018-08-19 05:00   2.0   2.4    38  23.6  20.5  82.5
2018-08-19 04:58   2.3   2.5    35  23.6  20.3  81.6
2018-08-19 04:56   2.4   2.7    48  23.6  20.3  81.3
2018-08-19 04:54   2.7   2.9    51  23.6  20.3  81.3
2018-08-19 04:52   2.8   3.1    47  23.6  20.3  81.6
2018-08-19 04:50   2.2   2.6    36  23.6  20.4  81.9
2018-08-19 04:48   2.1   2.5    45  23.6  20.3  81.5
2018-08-19 04:46   2.3   2.7    37  23.6  20.4  81.7
2018-08-19 04:44   2.1   2.5    41  23.6  20.4  81.7
2018-08-19 04:42   2.6   2.9    45  23.5  20.4  82.2
2018-08-19 04:40   2.3   2.6    46  23.5  20.4  82.4
2018-08-19 04:38   2.5   2.6    41  23.5  20.4  82.4
2018-08-19 04:36   2.5   2.7    48  23.6  20.6  82.8
2018-08-19 04:34   2.4   2.8    40  23.6  20.5  82.7
2018-08-19 04:32   2.4   2.6    37  23.6  20.6  82.8
2018-08-19 04:30   2.6   3.1    39  23.6  20.5  82.6
2018-08-19 04:28   2.7   3.0    45  23.6  20.6  82.9
2018-08-19 04:26   2.3   2.9    47  23.6  20.6  83.1
2018-08-19 04:24   2.4   2.9    52  23.6  20.5  82.4
2018-08-19 04:22   2.5   3.0    50  23.6  20.5  82.5
2018-08-19 04:20   2.6   3.0    46  23.5  20.3  82.0
2018-08-19 04:18   3.0   3.2    58  23.5  20.3  82.1
2018-08-19 04:16   3.0   3.2    57  23.6  20.5  82.5
2018-08-19 04:14   2.8   3.3    50  23.5  20.5  83.0
2018-08-19 04:12   2.6   3.0    55  23.6  20.7  83.7
2018-08-19 04:10   2.5   3.1    63  23.6  20.6  82.9
2018-08-19 04:08   2.2   2.5    53  23.6  20.5  82.5
2018-08-19 04:06   2.6   3.2    44  23.5  20.3  81.8
2018-08-19 04:04   3.3   3.6    44  23.6  20.3  81.6
2018-08-19 04:02   3.1   3.4    50  23.6  20.4  81.9
2018-08-19 04:00   3.0   3.5    50  23.6  20.4  81.7
2018-08-19 03:58   2.4   2.8    46  23.6  20.3  81.6
2018-08-19 03:56   2.9   3.5    57  23.6  20.3  81.5
2018-08-19 03:54   2.7   3.1    45  23.5  20.4  82.3
2018-08-19 03:52   2.0   2.2    53  23.6  20.7  83.5
2018-08-19 03:50   2.5   2.8    57  23.6  20.4  82.2